sensor_id;sensor_type;location;lat;lon;timestamp;P1;durP1;ratioP1;P2;durP2;ratioP2
77148;SDS011;66122;47.130;16.844;2023-02-15T00:06:10;30.23;;;11.37;;
77148;SDS011;66122;47.130;16.844;2023-02-15T00:16:13;27.63;;;11.02;;
77148;SDS011;66122;47.130;16.844;2023-02-15T00:26:16;26.93;;;9.83;;
77148;SDS011;66122;47.130;16.844;2023-02-15T00:36:19;33.13;;;11.73;;
77148;SDS011;66122;47.130;16.844;2023-02-15T00:46:23;45.57;;;16.93;;
77148;SDS011;66122;47.130;16.844;2023-02-15T00:56:26;34.03;;;13.95;;
77148;SDS011;66122;47.130;16.844;2023-02-15T01:06:30;35.90;;;14.50;;
77148;SDS011;66122;47.130;16.844;2023-02-15T01:16:33;36.00;;;13.33;;
77148;SDS011;66122;47.130;16.844;2023-02-15T01:26:35;32.20;;;13.98;;
77148;SDS011;66122;47.130;16.844;2023-02-15T01:36:39;34.77;;;14.77;;
77148;SDS011;66122;47.130;16.844;2023-02-15T01:46:44;35.73;;;15.10;;
77148;SDS011;66122;47.130;16.844;2023-02-15T01:57:00;37.85;;;15.18;;
77148;SDS011;66122;47.130;16.844;2023-02-15T02:07:06;38.88;;;14.90;;
77148;SDS011;66122;47.130;16.844;2023-02-15T02:17:17;35.50;;;15.30;;
77148;SDS011;66122;47.130;16.844;2023-02-15T02:27:49;33.87;;;14.33;;
77148;SDS011;66122;47.130;16.844;2023-02-15T02:48:29;33.60;;;15.00;;
77148;SDS011;66122;47.130;16.844;2023-02-15T02:58:42;32.13;;;13.03;;
77148;SDS011;66122;47.130;16.844;2023-02-15T03:08:51;32.05;;;14.88;;
77148;SDS011;66122;47.130;16.844;2023-02-15T03:19:01;31.40;;;13.07;;
77148;SDS011;66122;47.130;16.844;2023-02-15T03:29:15;34.83;;;14.33;;
77148;SDS011;66122;47.130;16.844;2023-02-15T03:50:09;32.20;;;13.30;;
77148;SDS011;66122;47.130;16.844;2023-02-15T04:00:35;34.53;;;14.27;;
77148;SDS011;66122;47.130;16.844;2023-02-15T04:11:01;33.20;;;13.03;;
77148;SDS011;66122;47.130;16.844;2023-02-15T04:21:03;32.95;;;13.27;;
77148;SDS011;66122;47.130;16.844;2023-02-15T04:31:25;32.63;;;12.97;;
77148;SDS011;66122;47.130;16.844;2023-02-15T04:41:27;36.80;;;13.30;;
77148;SDS011;66122;47.130;16.844;2023-02-15T04:51:30;32.85;;;13.88;;
77148;SDS011;66122;47.130;16.844;2023-02-15T05:01:32;30.97;;;12.70;;
77148;SDS011;66122;47.130;16.844;2023-02-15T05:11:35;34.20;;;12.87;;
77148;SDS011;66122;47.130;16.844;2023-02-15T05:21:37;31.55;;;13.48;;
77148;SDS011;66122;47.130;16.844;2023-02-15T05:31:40;32.57;;;14.27;;
77148;SDS011;66122;47.130;16.844;2023-02-15T05:41:43;36.93;;;14.07;;
77148;SDS011;66122;47.130;16.844;2023-02-15T05:51:45;31.90;;;14.67;;
77148;SDS011;66122;47.130;16.844;2023-02-15T06:01:48;41.00;;;19.13;;
77148;SDS011;66122;47.130;16.844;2023-02-15T06:11:51;36.13;;;16.73;;
77148;SDS011;66122;47.130;16.844;2023-02-15T06:21:53;38.30;;;15.53;;
77148;SDS011;66122;47.130;16.844;2023-02-15T06:31:58;37.75;;;16.20;;
77148;SDS011;66122;47.130;16.844;2023-02-15T06:42:01;54.43;;;20.63;;
77148;SDS011;66122;47.130;16.844;2023-02-15T06:52:04;38.63;;;17.37;;
77148;SDS011;66122;47.130;16.844;2023-02-15T07:02:08;42.65;;;17.33;;
77148;SDS011;66122;47.130;16.844;2023-02-15T07:12:12;44.00;;;18.37;;
77148;SDS011;66122;47.130;16.844;2023-02-15T07:22:33;50.60;;;21.57;;
77148;SDS011;66122;47.130;16.844;2023-02-15T07:32:38;44.07;;;19.50;;
77148;SDS011;66122;47.130;16.844;2023-02-15T07:43:00;46.05;;;18.20;;
77148;SDS011;66122;47.130;16.844;2023-02-15T07:53:03;45.10;;;16.07;;
77148;SDS011;66122;47.130;16.844;2023-02-15T08:03:06;40.33;;;17.80;;
77148;SDS011;66122;47.130;16.844;2023-02-15T08:13:18;48.72;;;22.52;;
77148;SDS011;66122;47.130;16.844;2023-02-15T08:23:20;43.63;;;17.90;;
77148;SDS011;66122;47.130;16.844;2023-02-15T08:33:23;41.73;;;17.83;;
77148;SDS011;66122;47.130;16.844;2023-02-15T08:43:26;30.77;;;14.77;;
77148;SDS011;66122;47.130;16.844;2023-02-15T08:53:28;29.47;;;12.20;;
77148;SDS011;66122;47.130;16.844;2023-02-15T09:03:31;30.27;;;12.30;;
77148;SDS011;66122;47.130;16.844;2023-02-15T09:13:34;29.83;;;13.03;;
77148;SDS011;66122;47.130;16.844;2023-02-15T09:23:37;38.78;;;11.77;;
77148;SDS011;66122;47.130;16.844;2023-02-15T09:33:40;33.93;;;11.70;;
77148;SDS011;66122;47.130;16.844;2023-02-15T10:24:55;32.67;;;12.23;;
77148;SDS011;66122;47.130;16.844;2023-02-15T10:35:15;29.37;;;14.30;;
77148;SDS011;66122;47.130;16.844;2023-02-15T10:45:25;31.53;;;12.23;;
77148;SDS011;66122;47.130;16.844;2023-02-15T11:06:15;28.17;;;12.00;;
77148;SDS011;66122;47.130;16.844;2023-02-15T11:16:24;28.13;;;12.67;;
77148;SDS011;66122;47.130;16.844;2023-02-15T11:26:33;33.33;;;13.43;;
77148;SDS011;66122;47.130;16.844;2023-02-15T11:36:39;30.60;;;12.60;;
77148;SDS011;66122;47.130;16.844;2023-02-15T11:46:43;31.47;;;12.07;;
77148;SDS011;66122;47.130;16.844;2023-02-15T11:56:46;30.30;;;12.53;;
77148;SDS011;66122;47.130;16.844;2023-02-15T12:06:53;26.80;;;12.05;;
77148;SDS011;66122;47.130;16.844;2023-02-15T12:17:04;26.70;;;12.73;;
77148;SDS011;66122;47.130;16.844;2023-02-15T12:37:21;26.63;;;11.90;;
77148;SDS011;66122;47.130;16.844;2023-02-15T12:47:28;25.95;;;12.75;;
77148;SDS011;66122;47.130;16.844;2023-02-15T12:57:33;26.53;;;13.30;;
77148;SDS011;66122;47.130;16.844;2023-02-15T13:07:36;25.90;;;12.57;;
77148;SDS011;66122;47.130;16.844;2023-02-15T13:17:39;26.45;;;13.82;;
77148;SDS011;66122;47.130;16.844;2023-02-15T13:27:53;28.37;;;14.63;;
77148;SDS011;66122;47.130;16.844;2023-02-15T14:30:27;24.45;;;12.75;;
77148;SDS011;66122;47.130;16.844;2023-02-15T14:40:38;58.10;;;23.00;;
77148;SDS011;66122;47.130;16.844;2023-02-15T14:51:06;32.93;;;14.87;;
77148;SDS011;66122;47.130;16.844;2023-02-15T15:01:09;28.15;;;14.10;;
77148;SDS011;66122;47.130;16.844;2023-02-15T15:31:52;39.78;;;18.92;;
77148;SDS011;66122;47.130;16.844;2023-02-15T15:42:04;31.10;;;14.43;;
77148;SDS011;66122;47.130;16.844;2023-02-15T15:52:21;33.53;;;15.17;;
77148;SDS011;66122;47.130;16.844;2023-02-15T16:02:24;38.30;;;16.67;;
77148;SDS011;66122;47.130;16.844;2023-02-15T16:12:28;38.50;;;14.85;;
77148;SDS011;66122;47.130;16.844;2023-02-15T16:22:32;34.57;;;14.20;;
77148;SDS011;66122;47.130;16.844;2023-02-15T16:32:36;32.40;;;14.70;;
77148;SDS011;66122;47.130;16.844;2023-02-15T16:42:40;33.90;;;15.60;;
77148;SDS011;66122;47.130;16.844;2023-02-15T16:52:42;53.60;;;25.67;;
77148;SDS011;66122;47.130;16.844;2023-02-15T17:02:52;40.07;;;18.03;;
77148;SDS011;66122;47.130;16.844;2023-02-15T17:13:02;38.92;;;17.30;;
77148;SDS011;66122;47.130;16.844;2023-02-15T17:23:35;34.77;;;15.33;;
77148;SDS011;66122;47.130;16.844;2023-02-15T17:33:42;37.00;;;14.93;;
77148;SDS011;66122;47.130;16.844;2023-02-15T17:43:45;40.30;;;16.37;;
77148;SDS011;66122;47.130;16.844;2023-02-15T17:53:48;32.53;;;14.38;;
77148;SDS011;66122;47.130;16.844;2023-02-15T18:04:11;32.40;;;15.00;;
77148;SDS011;66122;47.130;16.844;2023-02-15T18:14:36;33.90;;;15.07;;
77148;SDS011;66122;47.130;16.844;2023-02-15T18:24:39;42.85;;;18.50;;
77148;SDS011;66122;47.130;16.844;2023-02-15T18:34:43;44.47;;;18.87;;
77148;SDS011;66122;47.130;16.844;2023-02-15T18:44:48;42.80;;;18.20;;
77148;SDS011;66122;47.130;16.844;2023-02-15T18:54:58;39.63;;;18.00;;
77148;SDS011;66122;47.130;16.844;2023-02-15T19:05:04;39.10;;;15.83;;
77148;SDS011;66122;47.130;16.844;2023-02-15T19:15:13;37.77;;;15.90;;
77148;SDS011;66122;47.130;16.844;2023-02-15T19:25:19;53.87;;;23.77;;
77148;SDS011;66122;47.130;16.844;2023-02-15T19:35:26;46.85;;;19.55;;
77148;SDS011;66122;47.130;16.844;2023-02-15T19:45:35;53.57;;;23.30;;
77148;SDS011;66122;47.130;16.844;2023-02-15T19:55:37;47.87;;;20.80;;
77148;SDS011;66122;47.130;16.844;2023-02-15T20:05:42;43.58;;;18.88;;
77148;SDS011;66122;47.130;16.844;2023-02-15T20:15:46;47.70;;;18.60;;
77148;SDS011;66122;47.130;16.844;2023-02-15T20:25:50;36.13;;;15.50;;
77148;SDS011;66122;47.130;16.844;2023-02-15T20:35:53;42.53;;;15.77;;
77148;SDS011;66122;47.130;16.844;2023-02-15T20:45:57;31.67;;;14.10;;
77148;SDS011;66122;47.130;16.844;2023-02-15T20:56:00;46.60;;;18.70;;
77148;SDS011;66122;47.130;16.844;2023-02-15T21:06:03;46.67;;;18.60;;
77148;SDS011;66122;47.130;16.844;2023-02-15T21:16:07;53.65;;;21.67;;
77148;SDS011;66122;47.130;16.844;2023-02-15T21:26:20;38.27;;;15.73;;
77148;SDS011;66122;47.130;16.844;2023-02-15T21:36:24;44.23;;;17.03;;
77148;SDS011;66122;47.130;16.844;2023-02-15T21:46:27;38.40;;;16.45;;
77148;SDS011;66122;47.130;16.844;2023-02-15T21:56:47;37.13;;;15.07;;
77148;SDS011;66122;47.130;16.844;2023-02-15T22:06:52;31.97;;;15.43;;
77148;SDS011;66122;47.130;16.844;2023-02-15T22:16:55;42.47;;;18.15;;
77148;SDS011;66122;47.130;16.844;2023-02-15T22:26:57;42.92;;;19.20;;
77148;SDS011;66122;47.130;16.844;2023-02-15T22:37:00;38.83;;;16.03;;
77148;SDS011;66122;47.130;16.844;2023-02-15T22:47:04;47.67;;;18.90;;
77148;SDS011;66122;47.130;16.844;2023-02-15T22:57:13;42.80;;;17.75;;
77148;SDS011;66122;47.130;16.844;2023-02-15T23:07:21;49.77;;;20.07;;
77148;SDS011;66122;47.130;16.844;2023-02-15T23:17:24;43.63;;;19.37;;
77148;SDS011;66122;47.130;16.844;2023-02-15T23:27:26;43.00;;;18.50;;
77148;SDS011;66122;47.130;16.844;2023-02-15T23:37:47;47.00;;;18.73;;
77148;SDS011;66122;47.130;16.844;2023-02-15T23:47:50;35.17;;;16.40;;
77148;SDS011;66122;47.130;16.844;2023-02-15T23:58:13;40.90;;;16.35;;
